Time;durP1;ratioP1;P1;durP2;ratioP2;P2;SDS_P1;SDS_P2;PMS_P1;PMS_P2;Temp;Humidity;BMP_temperature;BMP_pressure;BME280_temperature;BME280_humidity;BME280_pressure;Samples;Min_cycle;Max_cycle;Signal;HPM_P1;HPM_P2
2022/08/19 00:02:04;;;;;;;15.40;14.20;;;21.80;99.90;;;;;;6063175;23;20425;-69
2022/08/19 00:04:35;;;;;;;16.03;14.73;;;21.80;99.90;;;;;;6062841;23;20458;-68
2022/08/19 00:07:04;;;;;;;15.97;14.67;;;21.80;99.90;;;;;;6062671;23;20502;-69
2022/08/19 00:09:32;;;;;;;16.17;14.97;;;21.70;99.90;;;;;;6063390;23;20419;-69
2022/08/19 00:12:01;;;;;;;16.33;14.93;;;21.70;99.90;;;;;;6063037;23;20466;-69
2022/08/19 00:14:31;;;;;;;16.53;15.23;;;21.70;99.90;;;;;;6063112;23;20424;-69
2022/08/19 00:16:59;;;;;;;16.20;14.90;;;21.60;99.90;;;;;;6062654;23;20437;-69
2022/08/19 00:19:26;;;;;;;16.60;15.30;;;21.60;99.90;;;;;;6062718;23;20832;-69
2022/08/19 00:21:54;;;;;;;13.83;12.90;;;21.60;99.90;;;;;;6062770;23;20437;-68
2022/08/19 00:24:21;;;;;;;15.40;13.90;;;21.60;99.90;;;;;;6063265;23;20458;-68
2022/08/19 00:26:50;;;;;;;15.83;14.63;;;21.60;99.90;;;;;;6062384;23;20463;-69
2022/08/19 00:29:22;;;;;;;15.90;14.70;;;21.60;99.90;;;;;;6063074;23;20459;-69
2022/08/19 00:31:49;;;;;;;16.37;15.07;;;21.60;99.90;;;;;;6062713;23;20447;-69
2022/08/19 00:34:17;;;;;;;15.70;14.50;;;21.60;99.90;;;;;;6063392;23;20438;-69
2022/08/19 00:36:44;;;;;;;16.67;15.10;;;21.60;99.90;;;;;;6062491;23;20491;-69
2022/08/19 00:39:11;;;;;;;14.03;12.93;;;21.60;99.90;;;;;;6063154;23;20522;-68
2022/08/19 00:41:39;;;;;;;16.00;14.60;;;21.60;99.90;;;;;;6062817;23;20513;-68
2022/08/19 00:44:08;;;;;;;16.43;15.23;;;21.60;99.90;;;;;;6063136;23;20429;-68
2022/08/19 00:46:39;;;;;;;15.93;14.73;;;21.60;99.90;;;;;;6062306;23;20451;-69
2022/08/19 00:49:10;;;;;;;16.50;15.10;;;21.50;99.90;;;;;;6063173;23;20549;-69
2022/08/19 00:51:37;;;;;;;14.93;13.83;;;21.50;99.90;;;;;;6063035;23;20426;-68
2022/08/19 00:54:05;;;;;;;16.17;14.87;;;21.50;99.90;;;;;;6062829;23;20891;-68
2022/08/19 00:56:33;;;;;;;16.80;15.20;;;21.50;99.90;;;;;;6062151;23;20473;-68
2022/08/19 00:59:01;;;;;;;15.20;14.00;;;21.50;99.90;;;;;;6062715;23;20434;-69
2022/08/19 01:01:28;;;;;;;15.50;14.17;;;21.50;99.90;;;;;;6063090;23;20471;-69
2022/08/19 01:03:57;;;;;;;15.23;13.93;;;21.50;99.90;;;;;;6063026;23;20429;-69
2022/08/19 01:06:24;;;;;;;15.67;14.37;;;21.50;99.90;;;;;;6062719;23;20456;-69
2022/08/19 01:08:51;;;;;;;16.23;14.87;;;21.50;99.90;;;;;;6062811;23;20470;-69
2022/08/19 01:11:18;;;;;;;15.77;14.53;;;21.50;99.90;;;;;;6062684;23;20436;-69
2022/08/19 01:13:46;;;;;;;16.40;14.90;;;21.50;99.90;;;;;;6062817;23;20435;-69
2022/08/19 01:16:14;;;;;;;15.10;13.90;;;21.50;99.90;;;;;;6062465;23;20423;-69
2022/08/19 01:18:43;;;;;;;16.40;15.17;;;21.50;99.90;;;;;;6062808;23;20443;-69
2022/08/19 01:21:18;;;;;;;16.00;14.70;;;21.50;99.90;;;;;;6062694;23;20434;-69
2022/08/19 01:23:47;;;;;;;15.53;14.23;;;21.50;99.90;;;;;;6062697;23;20429;-69
2022/08/19 01:26:17;;;;;;;16.90;15.47;;;21.50;99.90;;;;;;6062720;23;20434;-69
2022/08/19 01:28:46;;;;;;;16.33;14.97;;;21.50;99.90;;;;;;6062882;23;20463;-69
2022/08/19 01:31:15;;;;;;;17.43;15.93;;;21.50;99.90;;;;;;6062670;23;20450;-69
2022/08/19 01:33:43;;;;;;;15.50;14.30;;;21.40;99.90;;;;;;6062519;23;20456;-69
2022/08/19 01:36:13;;;;;;;17.17;15.67;;;21.40;99.90;;;;;;6062290;23;20415;-69
2022/08/19 01:38:43;;;;;;;16.67;15.27;;;21.40;99.90;;;;;;6062730;23;20471;-69
2022/08/19 01:41:12;;;;;;;17.10;15.60;;;21.40;99.90;;;;;;6062685;23;20431;-68
2022/08/19 01:43:40;;;;;;;17.50;15.80;;;21.40;99.90;;;;;;6062883;23;20512;-68
2022/08/19 01:46:07;;;;;;;17.27;15.87;;;21.30;99.90;;;;;;6062352;23;20913;-68
2022/08/19 01:48:37;;;;;;;16.90;15.50;;;21.30;99.90;;;;;;6062604;23;20457;-68
2022/08/19 01:51:04;;;;;;;17.17;15.77;;;21.30;99.90;;;;;;6062340;23;20421;-69
2022/08/19 01:53:31;;;;;;;18.47;16.70;;;21.30;99.90;;;;;;6062709;23;20956;-69
2022/08/19 01:55:59;;;;;;;17.57;16.17;;;21.30;99.90;;;;;;6062417;23;20432;-69
2022/08/19 01:58:32;;;;;;;15.47;14.27;;;21.20;99.90;;;;;;6062765;23;20456;-68
2022/08/19 02:00:59;;;;;;;18.77;17.17;;;21.20;99.90;;;;;;6062387;23;20428;-69
2022/08/19 02:03:26;;;;;;;17.73;16.30;;;21.20;99.90;;;;;;6062475;23;20477;-69
2022/08/19 02:05:59;;;;;;;21.03;19.33;;;21.20;99.90;;;;;;6062412;23;20452;-69
2022/08/19 02:08:26;;;;;;;18.20;16.60;;;21.20;99.90;;;;;;6062808;23;20823;-69
2022/08/19 02:10:53;;;;;;;17.37;15.97;;;21.20;99.90;;;;;;6062270;23;20467;-68
2022/08/19 02:13:21;;;;;;;18.90;17.23;;;21.20;99.90;;;;;;6062266;23;20519;-69
2022/08/19 02:15:49;;;;;;;18.50;17.00;;;21.20;99.90;;;;;;6060821;23;20477;-68
2022/08/19 02:18:16;;;;;;;19.07;17.37;;;21.20;99.90;;;;;;6061006;23;20974;-69
2022/08/19 02:20:46;;;;;;;17.63;16.13;;;21.20;99.90;;;;;;6062181;23;20427;-69
2022/08/19 02:23:15;;;;;;;19.00;17.20;;;21.10;99.90;;;;;;6062435;23;20432;-68
2022/08/19 02:25:42;;;;;;;19.83;18.17;;;21.10;99.90;;;;;;6061832;23;20472;-68
2022/08/19 02:28:09;;;;;;;20.93;19.23;;;21.10;99.90;;;;;;6062101;23;20457;-69
2022/08/19 02:30:36;;;;;;;19.03;17.33;;;21.00;99.90;;;;;;6061838;23;20418;-69
2022/08/19 02:33:05;;;;;;;18.53;17.03;;;21.00;99.90;;;;;;6061990;23;20767;-69
2022/08/19 02:35:32;;;;;;;20.13;18.47;;;21.00;99.90;;;;;;6062106;23;20457;-68
2022/08/19 02:40:51;;;;;;;20.40;18.63;;;21.00;99.90;;;;;;6062386;23;20912;-68
2022/08/19 02:43:19;;;;;;;20.37;18.57;;;20.90;99.90;;;;;;6061892;23;20502;-69
2022/08/19 02:45:48;;;;;;;20.13;18.43;;;21.00;99.90;;;;;;6063084;23;20431;-69
2022/08/19 02:48:18;;;;;;;20.40;18.50;;;20.90;99.90;;;;;;6063422;23;20491;-68
2022/08/19 02:50:45;;;;;;;21.07;19.27;;;20.90;99.90;;;;;;6063777;23;20504;-69
2022/08/19 02:53:13;;;;;;;21.87;19.93;;;20.90;99.90;;;;;;6063601;23;20815;-69
2022/08/19 02:55:44;;;;;;;22.70;20.77;;;20.90;99.90;;;;;;6063109;23;20423;-69
2022/08/19 02:58:11;;;;;;;22.87;20.77;;;20.90;99.90;;;;;;6063186;23;20981;-68
2022/08/19 03:00:43;;;;;;;22.00;20.10;;;20.90;99.90;;;;;;6063711;23;20424;-69
2022/08/19 03:03:11;;;;;;;23.40;21.37;;;20.80;99.90;;;;;;6063540;23;20515;-68
2022/08/19 03:05:40;;;;;;;23.60;21.70;;;20.80;99.90;;;;;;6063434;23;20462;-68
2022/08/19 03:08:08;;;;;;;23.83;21.73;;;20.80;99.90;;;;;;6063114;23;20476;-69
2022/08/19 03:10:43;;;;;;;23.37;21.37;;;20.80;99.90;;;;;;6063810;23;20419;-68
2022/08/19 03:13:11;;;;;;;23.10;21.00;;;20.70;99.90;;;;;;6063214;23;20487;-68
2022/08/19 03:15:41;;;;;;;22.93;21.03;;;20.60;99.90;;;;;;6062987;23;20423;-69
2022/08/19 03:18:09;;;;;;;24.23;22.10;;;20.60;99.90;;;;;;6063234;23;20787;-69
2022/08/19 03:20:42;;;;;;;24.53;22.37;;;20.60;99.90;;;;;;6063297;23;20920;-69
2022/08/19 03:23:12;;;;;;;28.60;26.00;;;20.60;99.90;;;;;;6063291;23;20952;-69
2022/08/19 03:25:42;;;;;;;24.07;21.97;;;20.60;99.90;;;;;;6062998;23;20425;-69
2022/08/19 03:28:11;;;;;;;23.50;21.60;;;20.50;99.90;;;;;;6062947;23;20451;-68
2022/08/19 03:30:39;;;;;;;24.53;22.53;;;20.50;99.90;;;;;;6063373;23;20447;-68
2022/08/19 03:33:06;;;;;;;26.20;23.80;;;20.50;99.90;;;;;;6062990;23;20424;-69
2022/08/19 03:35:36;;;;;;;24.77;22.67;;;20.50;99.90;;;;;;6063218;23;20462;-69
2022/08/19 03:38:05;;;;;;;25.57;23.30;;;20.40;99.90;;;;;;6063238;23;20518;-68
2022/08/19 03:40:34;;;;;;;26.20;23.93;;;20.30;99.90;;;;;;6063311;23;20462;-68
2022/08/19 03:43:01;;;;;;;24.17;22.27;;;20.30;99.90;;;;;;6063377;23;20420;-68
2022/08/19 03:45:28;;;;;;;27.07;24.77;;;20.30;99.90;;;;;;6062678;23;20435;-68
2022/08/19 03:47:56;;;;;;;26.27;24.03;;;20.40;99.90;;;;;;6063336;23;20467;-69
2022/08/19 03:50:24;;;;;;;26.00;23.70;;;20.20;99.90;;;;;;6063358;23;20520;-69
2022/08/19 03:52:52;;;;;;;25.13;23.03;;;20.30;99.90;;;;;;6063255;23;20439;-69
2022/08/19 03:55:20;;;;;;;26.63;24.43;;;20.20;99.90;;;;;;6062754;23;20426;-68
2022/08/19 03:57:48;;;;;;;26.67;24.47;;;20.20;99.90;;;;;;6063206;23;20511;-69
2022/08/19 04:00:16;;;;;;;26.43;24.23;;;20.20;99.90;;;;;;6062873;23;20432;-69
2022/08/19 04:02:43;;;;;;;27.53;25.23;;;20.20;99.90;;;;;;6062684;23;20572;-69
2022/08/19 04:05:10;;;;;;;26.30;23.97;;;20.20;99.90;;;;;;6062916;23;20463;-69
2022/08/19 04:07:37;;;;;;;24.93;22.70;;;20.20;99.90;;;;;;6063488;23;20444;-69
2022/08/19 04:10:05;;;;;;;27.20;25.00;;;20.20;99.90;;;;;;6063544;23;20533;-68
2022/08/19 04:12:34;;;;;;;25.30;23.20;;;20.20;99.90;;;;;;6062472;23;20951;-69
2022/08/19 04:15:01;;;;;;;27.70;25.10;;;20.20;99.90;;;;;;6063045;23;20494;-68
2022/08/19 04:17:28;;;;;;;25.17;22.97;;;20.20;99.90;;;;;;6063224;23;20439;-69
2022/08/19 04:19:55;;;;;;;25.57;23.37;;;20.30;99.90;;;;;;6062695;23;20942;-69
2022/08/19 04:22:22;;;;;;;27.67;25.27;;;20.30;99.90;;;;;;6063119;23;20424;-69
2022/08/19 04:24:50;;;;;;;26.03;23.83;;;20.40;99.90;;;;;;6062856;23;20435;-69
2022/08/19 04:27:17;;;;;;;25.70;23.50;;;20.30;99.90;;;;;;6062318;23;20519;-69
2022/08/19 04:29:45;;;;;;;26.60;24.20;;;20.30;99.90;;;;;;6063131;23;20537;-69
2022/08/19 04:32:15;;;;;;;26.33;24.20;;;20.30;99.90;;;;;;6063114;23;20462;-69
2022/08/19 04:34:43;;;;;;;26.37;24.17;;;20.30;99.90;;;;;;6062757;23;20456;-69
2022/08/19 04:37:11;;;;;;;27.33;25.03;;;20.30;99.90;;;;;;6062929;23;20518;-69
2022/08/19 04:42:39;;;;;;;26.33;24.33;;;20.30;99.90;;;;;;6063103;23;20422;-69
2022/08/19 04:45:10;;;;;;;25.60;23.57;;;20.30;99.90;;;;;;6062389;23;20536;-69
2022/08/19 04:47:37;;;;;;;26.50;24.23;;;20.30;99.90;;;;;;6062972;23;20436;-69
2022/08/19 04:50:05;;;;;;;26.93;24.70;;;20.30;99.90;;;;;;6062849;23;20493;-69
2022/08/19 04:52:33;;;;;;;25.33;23.27;;;20.30;99.90;;;;;;6062582;23;20927;-69
2022/08/19 04:55:00;;;;;;;28.03;25.73;;;20.30;99.90;;;;;;6062696;23;20511;-69
2022/08/19 04:57:27;;;;;;;26.80;24.40;;;20.30;99.90;;;;;;6062701;23;20440;-69
2022/08/19 04:59:55;;;;;;;27.13;24.83;;;20.40;99.90;;;;;;6062897;23;20424;-69
2022/08/19 05:02:25;;;;;;;27.07;24.63;;;20.40;99.90;;;;;;6062473;23;20774;-69
2022/08/19 05:04:52;;;;;;;26.23;24.03;;;20.40;99.90;;;;;;6062461;23;20498;-69
2022/08/19 05:07:19;;;;;;;26.07;23.87;;;20.40;99.90;;;;;;6062505;23;20482;-69
2022/08/19 05:09:46;;;;;;;25.80;23.70;;;20.40;99.90;;;;;;6062795;23;20463;-69
2022/08/19 05:12:13;;;;;;;25.53;23.40;;;20.40;99.90;;;;;;6062682;23;20520;-69
2022/08/19 05:14:40;;;;;;;25.27;23.17;;;20.40;99.90;;;;;;6062530;23;20420;-69
2022/08/19 05:17:07;;;;;;;27.20;24.90;;;20.40;99.90;;;;;;6062398;23;20971;-69
2022/08/19 05:22:34;;;;;;;24.23;22.13;;;20.40;99.90;;;;;;6062765;23;20989;-69
2022/08/19 05:25:05;;;;;;;26.80;24.10;;;20.40;99.90;;;;;;6062381;23;20429;-69
2022/08/19 05:27:33;;;;;;;25.93;23.70;;;20.40;99.90;;;;;;6062362;23;20445;-69
2022/08/19 05:30:00;;;;;;;26.40;24.30;;;20.40;99.90;;;;;;6062418;23;20524;-69
2022/08/19 05:32:27;;;;;;;27.00;24.90;;;20.40;99.90;;;;;;6062672;23;20479;-69
2022/08/19 05:34:56;;;;;;;27.50;24.90;;;20.40;99.90;;;;;;6062167;23;20935;-69
2022/08/19 05:37:23;;;;;;;27.30;25.00;;;20.40;99.90;;;;;;6061919;23;20959;-69
2022/08/19 05:39:50;;;;;;;27.27;25.17;;;20.40;99.90;;;;;;6062604;23;20427;-69
2022/08/19 05:42:19;;;;;;;26.73;24.37;;;20.40;99.90;;;;;;6062553;23;20433;-69
2022/08/19 05:44:48;;;;;;;26.60;24.50;;;20.40;99.90;;;;;;6062618;23;20421;-68
2022/08/19 05:47:19;;;;;;;27.63;25.00;;;20.50;99.90;;;;;;6062400;23;20439;-69
2022/08/19 05:49:46;;;;;;;26.83;24.73;;;20.40;99.90;;;;;;6062656;23;20513;-69
2022/08/19 05:52:16;;;;;;;26.67;24.37;;;20.30;99.90;;;;;;6062277;23;20431;-69
2022/08/19 05:54:45;;;;;;;28.17;25.57;;;20.40;99.90;;;;;;6062173;23;20798;-69
2022/08/19 05:57:12;;;;;;;27.93;25.53;;;20.40;99.90;;;;;;6062391;23;20451;-69
2022/08/19 05:59:39;;;;;;;26.33;24.20;;;20.40;99.90;;;;;;6062602;23;20439;-69
2022/08/19 06:02:07;;;;;;;27.27;24.93;;;20.40;99.90;;;;;;6062112;23;20920;-69
2022/08/19 06:04:34;;;;;;;26.60;24.40;;;20.40;99.90;;;;;;6062433;23;20455;-69
2022/08/19 06:07:02;;;;;;;26.90;24.80;;;20.50;99.90;;;;;;6061970;23;20491;-69
2022/08/19 06:09:30;;;;;;;28.00;25.73;;;20.40;99.90;;;;;;6062310;23;20542;-69
2022/08/19 06:11:59;;;;;;;26.53;24.23;;;20.40;99.90;;;;;;6062418;23;20511;-69
2022/08/19 06:14:29;;;;;;;26.83;24.60;;;20.50;99.90;;;;;;6062329;23;20523;-69
2022/08/19 06:16:56;;;;;;;26.70;24.60;;;20.40;99.90;;;;;;6061997;23;20458;-69
2022/08/19 06:19:25;;;;;;;26.97;24.67;;;20.50;99.90;;;;;;6062744;23;20436;-69
2022/08/19 06:21:53;;;;;;;25.80;23.43;;;20.50;99.90;;;;;;6063526;23;20433;-69
2022/08/19 06:24:23;;;;;;;26.73;24.50;;;20.50;99.90;;;;;;6063602;23;20510;-69
2022/08/19 06:26:54;;;;;;;25.80;23.80;;;20.50;99.90;;;;;;6063370;23;20444;-68
2022/08/19 06:29:24;;;;;;;28.07;25.90;;;20.50;99.90;;;;;;6063305;23;20499;-69
2022/08/19 06:31:53;;;;;;;26.53;24.30;;;20.50;99.90;;;;;;6063592;23;20424;-69
2022/08/19 06:34:20;;;;;;;26.87;24.67;;;20.50;99.90;;;;;;6063427;23;20450;-69
2022/08/19 06:36:50;;;;;;;25.27;23.30;;;20.50;99.90;;;;;;6063208;23;20522;-69
2022/08/19 06:39:19;;;;;;;26.03;23.93;;;20.60;99.90;;;;;;6063504;23;20427;-69
2022/08/19 06:41:50;;;;;;;24.87;22.97;;;20.60;99.90;;;;;;6063457;23;20428;-69
2022/08/19 06:44:20;;;;;;;27.37;24.97;;;20.70;99.90;;;;;;6063752;23;20419;-69
2022/08/19 06:46:47;;;;;;;25.37;23.23;;;20.70;99.90;;;;;;6062824;23;20510;-69
2022/08/19 06:49:14;;;;;;;25.30;23.40;;;20.70;99.90;;;;;;6063370;23;20488;-69
2022/08/19 06:51:43;;;;;;;25.20;23.10;;;20.70;99.90;;;;;;6063603;23;20428;-69
2022/08/19 06:54:11;;;;;;;27.87;25.57;;;20.80;99.90;;;;;;6063418;23;20507;-69
2022/08/19 06:56:38;;;;;;;26.70;24.43;;;20.80;99.90;;;;;;6062501;23;21012;-69
2022/08/19 06:59:07;;;;;;;26.17;24.03;;;20.80;99.90;;;;;;6063392;23;20432;-69
2022/08/19 07:01:38;;;;;;;25.80;23.70;;;20.80;99.90;;;;;;6062646;23;20426;-69
2022/08/19 07:04:06;;;;;;;26.13;23.90;;;20.80;99.90;;;;;;6063302;23;20581;-69
2022/08/19 07:06:33;;;;;;;25.00;23.00;;;20.90;99.90;;;;;;6062994;23;20463;-69
2022/08/19 07:09:01;;;;;;;25.57;23.47;;;21.00;99.90;;;;;;6062997;23;20415;-69
2022/08/19 07:11:28;;;;;;;24.47;22.57;;;21.00;99.90;;;;;;6063113;23;20949;-69
2022/08/19 07:13:55;;;;;;;24.70;22.77;;;21.00;99.90;;;;;;6061308;23;20437;-69
2022/08/19 07:16:22;;;;;;;25.20;23.30;;;21.10;99.90;;;;;;6061229;23;20995;-69
2022/08/19 07:18:52;;;;;;;23.70;21.80;;;21.10;99.90;;;;;;6061742;23;20452;-69
2022/08/19 07:21:21;;;;;;;23.93;21.93;;;21.20;99.90;;;;;;6061586;23;20467;-69
2022/08/19 07:23:49;;;;;;;23.10;21.20;;;21.20;99.90;;;;;;6061218;23;20434;-69
2022/08/19 07:26:19;;;;;;;24.07;21.97;;;21.20;99.90;;;;;;6061327;23;20449;-69
2022/08/19 07:28:48;;;;;;;23.00;21.23;;;21.20;99.90;;;;;;6061975;23;20578;-69
2022/08/19 07:31:18;;;;;;;23.27;21.33;;;21.20;99.90;;;;;;6061245;23;20552;-69
2022/08/19 07:33:45;;;;;;;22.03;20.03;;;21.20;99.90;;;;;;6061947;23;20428;-69
2022/08/19 07:36:16;;;;;;;21.90;20.00;;;21.20;99.90;;;;;;6060831;23;20451;-69
2022/08/19 07:38:48;;;;;;;22.80;21.00;;;21.20;99.90;;;;;;6061541;23;20516;-69
2022/08/19 07:41:19;;;;;;;23.70;21.57;;;21.20;99.90;;;;;;6061474;23;20512;-69
2022/08/19 07:43:46;;;;;;;22.40;20.60;;;21.10;99.90;;;;;;6061352;23;20430;-69
2022/08/19 07:46:14;;;;;;;21.03;19.43;;;21.10;99.90;;;;;;6061021;23;21005;-69
2022/08/19 07:48:46;;;;;;;22.17;20.50;;;21.10;99.90;;;;;;6061620;23;20455;-69
2022/08/19 07:51:17;;;;;;;21.73;20.00;;;21.10;99.90;;;;;;6060762;23;20493;-69
2022/08/19 07:53:45;;;;;;;22.00;20.10;;;21.20;99.90;;;;;;6061183;23;20918;-69
2022/08/19 07:56:13;;;;;;;22.10;20.33;;;21.10;99.90;;;;;;6060781;23;20819;-69
2022/08/19 07:58:43;;;;;;;21.07;19.07;;;21.10;99.90;;;;;;6061324;23;20488;-69
2022/08/19 08:01:14;;;;;;;22.57;20.73;;;21.10;99.90;;;;;;6061414;23;20470;-69
2022/08/19 08:09:20;;;;;;;21.30;19.70;;;21.00;99.90;;;;;;6061444;23;20448;-69
2022/08/19 08:11:52;;;;;;;21.00;19.40;;;21.00;99.90;;;;;;5985060;23;1818207;-69
2022/08/19 08:14:22;;;;;;;21.70;20.00;;;21.00;99.90;;;;;;6062616;23;20411;-69
2022/08/19 08:16:50;;;;;;;20.10;18.50;;;21.00;99.90;;;;;;6062895;23;20521;-69
2022/08/19 08:19:19;;;;;;;19.97;18.37;;;21.00;99.90;;;;;;6062695;23;20428;-69
2022/08/19 08:21:48;;;;;;;20.40;18.70;;;21.00;99.90;;;;;;6062720;23;20441;-69
2022/08/19 08:24:16;;;;;;;21.43;19.60;;;21.00;99.90;;;;;;6062589;23;20423;-69
2022/08/19 08:26:44;;;;;;;20.77;18.80;;;21.10;99.90;;;;;;6062228;23;20462;-69
2022/08/19 08:29:12;;;;;;;20.27;18.57;;;21.10;99.90;;;;;;6062725;23;20445;-69
2022/08/19 08:31:40;;;;;;;20.60;18.93;;;21.10;99.90;;;;;;6062856;23;20553;-69
2022/08/19 08:34:08;;;;;;;19.53;17.97;;;21.10;99.90;;;;;;6062906;23;20475;-69
2022/08/19 08:36:40;;;;;;;20.10;18.33;;;21.10;99.90;;;;;;6062146;23;20547;-69
2022/08/19 08:39:09;;;;;;;19.83;18.13;;;21.10;99.90;;;;;;6062657;23;20993;-69
2022/08/19 08:41:41;;;;;;;20.03;18.43;;;21.10;99.90;;;;;;6061776;23;20415;-69
2022/08/19 08:44:15;;;;;;;19.77;17.87;;;21.20;99.90;;;;;;6062632;23;20436;-69
2022/08/19 08:46:47;;;;;;;20.77;19.07;;;21.20;99.90;;;;;;6062384;23;20436;-69
2022/08/19 08:49:26;;;;;;;20.17;18.53;;;21.20;99.90;;;;;;6062636;23;20454;-69
2022/08/19 08:52:00;;;;;;;18.93;17.43;;;21.30;99.90;;;;;;6062437;23;20524;-69
2022/08/19 08:54:34;;;;;;;18.90;17.30;;;21.30;99.90;;;;;;6062627;23;20645;-69
2022/08/19 08:57:01;;;;;;;18.90;17.30;;;21.40;99.90;;;;;;6061995;23;20446;-69
2022/08/19 08:59:33;;;;;;;20.30;18.57;;;21.40;99.90;;;;;;6062674;23;20918;-69
2022/08/19 09:02:01;;;;;;;19.10;17.70;;;21.50;99.90;;;;;;6062525;23;20441;-69
2022/08/19 09:04:28;;;;;;;20.00;18.37;;;21.60;99.90;;;;;;6062092;23;20429;-69
2022/08/19 09:07:03;;;;;;;18.40;17.00;;;21.60;99.90;;;;;;6062025;23;20454;-69
2022/08/19 09:09:39;;;;;;;18.60;17.13;;;21.80;99.90;;;;;;6062952;23;20505;-69
2022/08/19 09:12:14;;;;;;;18.10;16.70;;;21.70;99.90;;;;;;6062656;23;20438;-69
2022/08/19 09:14:48;;;;;;;18.37;16.60;;;21.80;99.90;;;;;;6062118;23;20795;-69
2022/08/19 09:17:16;;;;;;;18.23;16.67;;;21.90;99.90;;;;;;6062585;23;20505;-69
2022/08/19 09:19:53;;;;;;;17.50;16.10;;;22.00;99.90;;;;;;6062679;23;20433;-69
2022/08/19 09:22:21;;;;;;;16.77;15.37;;;22.00;99.90;;;;;;6062566;23;20898;-69
2022/08/19 09:24:52;;;;;;;18.00;16.50;;;22.00;99.90;;;;;;6062189;23;20903;-69
2022/08/19 09:27:20;;;;;;;17.37;15.90;;;22.20;99.90;;;;;;6061419;23;20443;-69
2022/08/19 09:29:48;;;;;;;17.40;15.90;;;22.20;99.90;;;;;;6062401;23;20970;-69
2022/08/19 09:32:15;;;;;;;16.73;15.30;;;22.30;99.90;;;;;;6062335;23;20427;-69
2022/08/19 09:34:43;;;;;;;16.67;15.40;;;22.30;99.90;;;;;;6062333;23;20478;-69
2022/08/19 09:37:10;;;;;;;16.87;15.37;;;22.40;99.90;;;;;;6062171;23;20430;-69
2022/08/19 09:39:38;;;;;;;16.37;15.07;;;22.40;99.90;;;;;;6062441;23;20457;-69
2022/08/19 09:42:11;;;;;;;18.17;16.47;;;22.40;99.90;;;;;;6062353;23;20427;-69
2022/08/19 09:44:38;;;;;;;16.60;15.23;;;22.40;99.90;;;;;;6062516;23;20851;-69
2022/08/19 09:47:06;;;;;;;16.40;15.10;;;22.50;99.90;;;;;;6062107;23;20538;-69
2022/08/19 09:49:34;;;;;;;15.50;14.40;;;22.50;99.90;;;;;;6062081;23;20436;-69
2022/08/19 09:52:01;;;;;;;15.03;13.90;;;22.60;99.90;;;;;;6062269;23;20552;-69
2022/08/19 09:54:28;;;;;;;17.37;16.03;;;22.60;99.90;;;;;;6062197;23;20439;-69
2022/08/19 09:56:56;;;;;;;15.80;14.40;;;22.70;99.90;;;;;;6062191;23;20419;-69
2022/08/19 09:59:25;;;;;;;16.60;15.23;;;22.70;99.90;;;;;;6062442;23;20975;-69
2022/08/19 10:01:52;;;;;;;14.13;13.00;;;22.70;99.90;;;;;;6062165;23;20588;-69
2022/08/19 10:04:19;;;;;;;14.50;13.50;;;22.70;99.90;;;;;;6062255;23;20482;-69
2022/08/19 10:06:47;;;;;;;16.10;14.90;;;22.70;99.90;;;;;;6061764;23;20455;-69
2022/08/19 10:09:15;;;;;;;16.27;15.07;;;22.70;99.90;;;;;;6062405;23;20430;-69
2022/08/19 10:11:46;;;;;;;15.30;14.10;;;22.60;99.90;;;;;;6062577;23;20474;-69
2022/08/19 10:14:13;;;;;;;14.93;13.60;;;22.60;99.90;;;;;;6062253;23;20926;-69
2022/08/19 10:16:41;;;;;;;15.20;14.00;;;22.60;99.90;;;;;;6061782;23;20954;-69
2022/08/19 10:19:09;;;;;;;14.63;13.43;;;22.60;99.90;;;;;;6062468;23;20424;-69
2022/08/19 10:21:38;;;;;;;14.67;13.67;;;22.70;99.90;;;;;;6061856;23;20889;-69
2022/08/19 10:24:06;;;;;;;15.33;14.03;;;22.70;99.90;;;;;;6062189;23;20941;-69
2022/08/19 10:26:36;;;;;;;14.97;13.70;;;22.70;99.90;;;;;;6061769;23;20512;-69
2022/08/19 10:29:04;;;;;;;14.63;13.40;;;22.70;99.90;;;;;;6062102;23;20569;-67
2022/08/19 10:31:33;;;;;;;14.33;13.23;;;22.70;99.90;;;;;;6061937;23;21022;-69
2022/08/19 10:34:02;;;;;;;14.47;13.40;;;22.70;99.90;;;;;;6062090;23;20432;-70
2022/08/19 10:36:32;;;;;;;14.10;12.80;;;22.80;99.90;;;;;;6061889;23;20446;-70
2022/08/19 10:39:03;;;;;;;12.20;11.30;;;22.80;99.90;;;;;;6061845;23;20482;-67
2022/08/19 10:41:33;;;;;;;12.43;11.50;;;22.80;99.90;;;;;;6062156;23;20462;-67
2022/08/19 10:44:02;;;;;;;11.30;10.30;;;22.80;99.90;;;;;;6061831;23;20431;-67
2022/08/19 10:46:32;;;;;;;11.20;10.30;;;22.90;99.90;;;;;;6061218;23;21001;-67
2022/08/19 10:49:00;;;;;;;10.37;9.57;;;22.80;99.90;;;;;;6062028;23;20506;-67
2022/08/19 10:54:13;;;;;;;9.20;8.50;;;22.90;99.90;;;;;;6061661;23;20942;-69
2022/08/19 10:56:52;;;;;;;10.27;9.37;;;22.90;99.90;;;;;;6061236;23;20514;-69
2022/08/19 10:59:21;;;;;;;9.33;8.60;;;23.00;99.90;;;;;;6061943;23;20423;-69
2022/08/19 11:01:49;;;;;;;10.03;9.13;;;23.10;99.90;;;;;;6061744;23;20493;-69
2022/08/19 11:04:17;;;;;;;9.03;8.33;;;23.20;99.90;;;;;;6061780;23;20830;-69
2022/08/19 11:06:47;;;;;;;9.90;9.20;;;23.30;99.90;;;;;;6062637;23;20494;-69
2022/08/19 11:09:15;;;;;;;9.40;8.70;;;23.50;99.90;;;;;;6063252;23;20423;-69
2022/08/19 11:11:42;;;;;;;9.27;8.63;;;23.60;99.90;;;;;;6062434;23;20606;-69
2022/08/19 11:14:11;;;;;;;8.60;7.90;;;23.80;99.90;;;;;;6063247;23;20510;-69
2022/08/19 11:16:39;;;;;;;8.70;8.00;;;24.00;99.90;;;;;;6062370;23;20439;-69
2022/08/19 11:19:08;;;;;;;8.50;7.83;;;24.20;99.90;;;;;;6062943;23;20424;-69
2022/08/19 11:21:37;;;;;;;8.90;8.10;;;24.40;99.90;;;;;;6062954;23;20439;-69
2022/08/19 11:24:15;;;;;;;9.10;8.50;;;24.50;99.90;;;;;;6062840;23;20428;-69
2022/08/19 11:26:44;;;;;;;10.80;10.00;;;24.50;99.90;;;;;;6063341;23;20422;-69
2022/08/19 11:29:13;;;;;;;9.27;8.60;;;24.50;99.90;;;;;;6063066;23;20433;-69
2022/08/19 11:31:42;;;;;;;9.80;8.90;;;24.40;99.90;;;;;;6062894;23;20469;-69
2022/08/19 11:34:14;;;;;;;9.57;8.77;;;24.30;99.90;;;;;;6062954;23;20916;-69
2022/08/19 11:36:44;;;;;;;9.40;8.70;;;24.30;99.90;;;;;;6062689;23;20945;-69
2022/08/19 11:39:14;;;;;;;9.10;8.30;;;24.30;99.90;;;;;;6063335;23;20477;-69
2022/08/19 11:41:41;;;;;;;8.27;7.57;;;24.30;99.90;;;;;;6062827;23;20441;-69
2022/08/19 11:44:09;;;;;;;9.10;8.33;;;24.30;99.90;;;;;;6062941;23;20767;-69
2022/08/19 11:46:37;;;;;;;8.20;7.60;;;24.30;99.90;;;;;;6062615;23;20923;-69
2022/08/19 11:49:07;;;;;;;9.40;8.70;;;24.30;99.90;;;;;;6062750;23;20955;-69
2022/08/19 11:51:34;;;;;;;9.93;9.13;;;24.30;99.90;;;;;;6062628;23;21093;-69
2022/08/19 11:54:02;;;;;;;8.80;8.00;;;24.40;99.90;;;;;;6062921;23;20827;-70
2022/08/19 11:56:30;;;;;;;11.70;10.10;;;24.40;99.90;;;;;;6062134;23;21031;-67
2022/08/19 11:58:57;;;;;;;11.20;8.80;;;24.40;99.90;;;;;;6062450;23;20441;-69
2022/08/19 12:01:29;;;;;;;10.10;9.20;;;24.40;99.90;;;;;;6062704;23;20899;-69
2022/08/19 12:03:57;;;;;;;10.43;9.73;;;24.40;99.90;;;;;;6063203;23;20452;-69
2022/08/19 12:06:29;;;;;;;9.37;8.67;;;24.30;99.90;;;;;;6062442;23;20491;-69
2022/08/19 12:08:57;;;;;;;9.43;8.83;;;24.30;99.90;;;;;;6063008;23;20420;-69
2022/08/19 12:11:24;;;;;;;9.93;9.23;;;24.20;99.90;;;;;;6062509;23;20462;-69
2022/08/19 12:13:54;;;;;;;11.40;10.50;;;24.20;99.90;;;;;;6062507;23;20447;-69
2022/08/19 12:16:27;;;;;;;10.70;9.80;;;24.20;99.90;;;;;;6062084;23;20471;-69
2022/08/19 12:18:56;;;;;;;10.00;9.30;;;24.20;99.90;;;;;;6062722;23;20973;-69
2022/08/19 12:21:28;;;;;;;10.70;9.90;;;24.30;99.90;;;;;;6062673;23;20435;-69
2022/08/19 12:23:57;;;;;;;10.20;9.50;;;24.30;99.90;;;;;;6062670;23;20415;-69
2022/08/19 12:26:25;;;;;;;10.83;10.03;;;24.40;99.90;;;;;;6061964;23;20510;-70
2022/08/19 12:28:54;;;;;;;9.57;8.80;;;24.50;99.90;;;;;;6062664;23;20908;-69
2022/08/19 12:31:21;;;;;;;9.40;8.60;;;24.60;99.90;;;;;;6062945;23;20487;-69
2022/08/19 12:33:48;;;;;;;9.07;8.47;;;24.70;99.90;;;;;;6062655;23;20433;-70
2022/08/19 12:36:17;;;;;;;9.33;8.63;;;24.80;99.90;;;;;;6062473;23;20449;-69
2022/08/19 12:38:46;;;;;;;9.00;8.40;;;24.90;99.90;;;;;;6062610;23;20995;-69
2022/08/19 12:41:17;;;;;;;8.80;8.10;;;24.90;99.90;;;;;;6062493;23;20511;-69
2022/08/19 12:43:45;;;;;;;8.13;7.50;;;24.90;99.90;;;;;;6062727;23;20439;-69
2022/08/19 12:46:13;;;;;;;8.70;7.97;;;25.00;99.90;;;;;;6062471;23;20449;-69
2022/08/19 12:48:44;;;;;;;8.10;7.50;;;25.10;99.90;;;;;;6062293;23;20421;-69
2022/08/19 12:51:13;;;;;;;8.70;8.10;;;25.10;99.90;;;;;;6062869;23;20494;-70
2022/08/19 12:53:40;;;;;;;7.97;7.27;;;25.00;99.90;;;;;;6062323;23;20905;-69
2022/08/19 12:56:08;;;;;;;8.20;7.60;;;25.00;99.90;;;;;;6062386;23;20528;-69